Date,TemperatureHighF,TemperatureAvgF,TemperatureLowF,DewpointHighF,DewpointAvgF,DewpointLowF,HumidityHigh,HumidityAvg,HumidityLow,PressureMaxIn,PressureMinIn,WindSpeedMaxMPH,WindSpeedAvgMPH,GustSpeedMaxMPH,PrecipitationSumIn
2013-1-1,44,34,28,36,29,21,95,81,42,30.45,30.30,14,0,14,0.00
2013-1-2,49,37,29,35,28,24,92,70,45,30.31,30.13,14,0,15,0.00
2013-1-3,50,38,30,35,28,22,85,68,49,30.30,30.10,4,0,6,0.00
2013-1-4,47,37,30,36,32,27,93,81,64,30.34,30.16,3,0,3,0.00
2013-1-5,44,37,32,38,34,30,100,90,77,30.19,30.11,6,0,6,0.06
2013-1-6,41,37,35,38,36,33,97,95,91,30.24,30.13,6,0,6,0.00
2013-1-7,41,39,37,40,38,36,97,96,93,30.29,30.21,3,0,3,0.05
2013-1-8,48,41,38,47,40,38,98,97,92,30.32,30.06,5,0,5,0.00
2013-1-9,51,39,33,45,36,30,98,88,57,30.06,29.85,21,1,21,0.07
2013-1-10,35,33,30,32,30,28,96,91,78,30.17,29.99,6,0,13,0.12
2013-1-11,37,33,27,33,28,23,93,82,71,30.27,30.14,12,1,15,0.04
2013-1-12,32,26,22,27,23,19,90,86,77,30.35,30.25,4,0,4,0.01
2013-1-13,32,25,22,25,21,19,89,84,72,30.45,30.34,6,0,6,0.00
2013-1-14,38,27,19,27,22,17,100,83,60,30.58,30.44,3,0,3,0.00
2013-1-15,44,32,24,32,27,21,92,82,61,30.63,30.52,4,0,4,0.01
2013-1-16,42,32,25,36,29,23,96,87,73,30.63,30.46,3,0,3,0.00
2013-1-17,49,35,26,37,28,23,92,77,53,30.47,30.27,3,0,3,0.00
2013-1-18,50,37,30,36,28,24,82,70,48,30.34,30.21,3,0,3,0.00
2013-1-19,52,40,30,36,28,23,87,63,46,30.34,30.21,3,0,3,0.00
2013-1-20,51,38,30,33,27,22,78,63,49,30.33,30.20,3,0,3,0.00
2013-1-21,54,39,27,34,27,22,89,63,46,30.25,30.13,3,0,3,0.00
2013-1-22,58,41,29,34,28,19,85,61,23,30.14,29.88,16,0,17,0.00
2013-1-23,57,52,45,44,35,20,95,57,24,30.06,29.76,21,3,27,0.01
2013-1-24,53,46,43,48,44,42,97,93,80,30.17,30.06,5,0,5,0.01
2013-1-25,47,45,43,47,44,42,98,97,92,30.16,29.94,4,0,5,0.22
2013-1-26,45,39,34,45,36,32,98,90,75,30.10,29.94,9,0,9,0.08
2013-1-27,42,36,33,36,33,32,95,89,69,30.20,30.08,4,0,4,0.06
2013-1-28,42,38,34,38,36,33,96,93,83,30.31,30.13,7,0,7,0.03
2013-1-29,45,40,37,41,37,35,97,90,81,30.49,30.29,4,0,4,0.01
2013-1-30,42,38,37,38,36,35,94,91,83,30.56,30.44,4,0,4,0.00
2013-1-31,39,37,35,37,35,33,95,92,89,30.45,30.34,5,0,6,0.00
2013-2-1,43,36,32,39,34,31,97,94,83,30.36,30.23,5,1,5,0.00
2013-2-2,43,34,27,40,33,26,99,96,92,30.35,30.28,5,0,5,0.01
2013-2-3,42,33,27,41,32,27,99,97,91,30.35,30.23,7,1,7,0.01
2013-2-4,46,36,30,42,35,29,99,95,82,30.26,29.99,5,1,5,0.00
2013-2-5,44,39,33,42,37,32,97,94,84,30.15,29.98,9,1,10,0.06
2013-2-6,50,39,31,41,36,30,98,87,67,30.16,29.91,12,1,12,0.00
2013-2-7,44,38,34,37,34,32,97,88,68,30.03,29.92,7,1,8,0.31
2013-2-8,43,36,33,37,33,29,98,88,65,30.22,30.02,11,1,11,0.07
2013-2-9,46,38,31,37,32,29,94,81,60,30.25,30.17,12,1,12,0.00
2013-2-10,50,38,32,38,34,30,96,87,58,30.28,30.17,10,1,10,0.00
2013-2-11,38,34,29,35,32,28,96,94,88,30.43,30.24,6,1,6,0.00
2013-2-12,52,40,32,41,35,30,97,83,60,30.53,30.42,7,1,7,0.00
2013-2-13,56,44,34,42,37,32,93,78,56,30.48,30.36,7,0,7,0.00
2013-2-14,57,47,39,44,40,36,92,76,59,30.50,30.34,6,0,6,0.00
2013-2-15,65,50,36,44,38,34,93,66,40,30.35,30.17,5,0,5,0.00
2013-2-16,60,46,37,41,35,32,87,67,45,30.23,30.08,11,0,11,0.00
2013-2-17,50,41,32,35,30,25,88,68,44,30.24,30.00,6,0,9,0.00
2013-2-18,43,37,29,34,31,25,88,76,64,30.01,29.75,5,0,5,0.00
2013-2-19,42,37,32,35,31,27,93,81,66,29.95,29.60,9,0,10,0.08
2013-2-20,48,39,33,35,32,29,94,76,50,30.10,29.95,6,0,6,0.04
2013-2-21,44,38,34,37,33,32,95,83,67,30.25,30.10,5,0,5,0.07
2013-2-22,50,42,37,40,38,33,96,85,62,30.21,30.03,13,0,13,0.17
2013-2-23,45,36,32,37,32,29,95,85,66,30.42,30.13,13,0,13,0.02
2013-2-24,49,37,28,37,31,25,93,80,59,30.45,30.19,5,0,6,0.00
2013-2-25,49,40,35,40,33,25,94,78,43,30.38,30.16,9,0,10,0.05
2013-2-26,51,39,29,36,30,26,91,72,51,30.38,30.23,6,0,6,0.00
2013-2-27,54,43,32,39,33,27,84,67,45,30.34,30.25,7,0,7,0.00
2013-2-28,54,47,43,48,44,38,94,88,76,30.48,30.26,4,0,4,0.02
2013-3-1,62,51,42,52,45,40,96,82,62,30.48,30.25,6,0,7,0.00
2013-3-2,52,47,42,47,44,40,95,88,76,30.25,30.12,5,0,6,0.13
2013-3-3,56,46,38,43,40,34,96,81,46,30.15,30.02,6,0,6,0.01
2013-3-4,59,44,32,44,37,30,100,78,51,30.10,29.88,6,0,6,0.00
2013-3-5,50,43,37,38,36,32,87,74,59,29.88,29.53,16,1,16,0.01
2013-3-6,51,42,36,39,33,27,93,70,43,29.95,29.47,18,1,18,0.03
2013-3-7,52,39,30,37,31,27,95,75,45,30.01,29.88,6,0,6,0.00
2013-3-8,55,41,30,38,30,20,92,68,27,30.15,29.92,9,1,9,0.00
2013-3-9,59,44,32,38,30,21,88,63,26,30.44,30.14,6,0,7,0.00
2013-3-10,64,47,34,40,31,25,82,56,26,30.49,30.31,6,0,9,0.00
2013-3-11,64,51,40,44,36,27,78,58,42,30.35,30.15,6,0,7,0.00
2013-3-12,65,52,41,48,42,38,90,68,44,30.20,30.07,6,0,6,0.00
2013-3-13,66,53,44,48,42,39,84,68,49,30.19,30.04,6,0,6,0.00
2013-3-14,64,54,45,48,42,35,85,66,48,30.17,30.02,7,0,7,0.00
2013-3-15,66,53,42,46,39,34,79,60,39,30.19,30.07,8,0,10,0.00
2013-3-16,57,49,43,46,41,37,91,76,58,30.13,30.05,12,1,12,0.00
2013-3-17,52,43,38,38,34,30,91,71,47,30.26,30.12,7,1,7,0.00
2013-3-18,58,44,30,39,32,28,91,67,42,30.23,30.03,6,0,6,0.00
2013-3-19,58,50,43,48,40,33,80,67,55,30.03,29.73,15,0,18,0.01
2013-3-20,58,49,36,46,40,29,86,71,56,30.16,29.69,17,2,17,0.02
2013-3-21,51,40,35,34,30,23,91,69,41,30.31,30.15,11,0,11,0.00
2013-3-22,48,38,30,30,26,22,83,64,41,30.32,30.26,10,1,11,0.00
2013-3-23,55,40,27,32,26,20,87,60,29,30.32,30.14,7,0,7,0.00
2013-3-24,61,46,34,39,32,26,78,59,39,30.18,29.96,6,0,7,0.00
2013-3-25,61,49,40,45,39,34,93,69,46,29.96,29.79,5,0,5,0.08
2013-3-26,57,48,42,45,42,40,95,82,62,29.95,29.87,7,0,7,0.03
2013-3-27,61,50,43,52,45,40,92,81,64,29.92,29.81,8,0,8,0.06
2013-3-28,58,51,47,51,47,44,93,87,70,30.07,29.90,8,0,9,0.06
2013-3-29,72,56,46,53,46,41,95,73,36,30.14,29.98,6,0,6,0.00
2013-3-30,75,59,46,52,46,42,87,64,39,30.07,29.85,14,0,14,0.00
2013-3-31,59,54,50,53,49,47,94,85,69,29.99,29.87,5,0,6,0.20
2013-4-1,59,50,46,50,47,44,96,87,65,30.14,29.97,6,0,6,0.84
2013-4-2,66,55,48,51,46,44,91,74,50,30.15,30.03,7,0,7,0.00
2013-4-3,66,55,44,54,48,42,94,78,61,30.08,29.80,5,0,5,0.00
2013-4-4,66,58,46,50,45,38,92,63,47,29.91,29.67,25,2,25,0.11
2013-4-5,58,49,43,50,46,41,96,87,60,30.00,29.90,6,0,6,0.03
2013-4-6,58,50,44,50,45,37,96,85,56,30.02,29.85,22,0,22,0.09
2013-4-7,54,46,36,44,40,34,100,81,59,29.95,29.78,15,1,15,0.40
2013-4-8,52,42,35,40,35,31,94,78,51,30.24,29.94,11,1,11,0.04
2013-4-9,64,49,37,44,36,25,93,66,24,30.31,30.20,8,0,9,0.00
2013-4-10,61,50,42,52,44,38,94,82,60,30.28,30.16,10,0,10,0.08
2013-4-11,62,50,41,44,40,36,93,73,44,30.23,30.02,7,1,9,0.00
2013-4-12,69,52,38,50,39,33,92,66,34,30.06,29.81,11,1,14,0.00
2013-4-13,55,48,40,40,35,31,82,63,43,30.05,29.86,12,1,12,0.00
2013-4-14,49,42,33,36,32,29,89,70,48,30.05,29.84,9,1,9,0.01
2013-4-15,48,39,35,38,34,31,92,81,55,30.13,29.89,10,1,12,0.17
2013-4-16,54,43,37,39,35,32,89,74,46,30.33,30.12,12,1,12,0.00
2013-4-17,60,47,35,38,34,28,91,64,33,30.43,30.32,7,0,8,0.00
2013-4-18,66,51,38,46,38,32,81,62,41,30.41,30.25,10,0,10,0.00
2013-4-19,65,53,47,51,43,38,88,69,43,30.27,30.16,13,1,13,0.00
2013-4-20,68,53,40,45,40,30,90,63,26,30.28,30.09,7,1,7,0.00
2013-4-21,70,54,42,47,41,34,81,63,35,30.24,30.09,7,0,7,0.00
2013-4-22,73,57,46,50,40,23,89,58,22,30.19,30.03,11,1,11,0.00
2013-4-23,74,57,42,39,29,22,58,35,17,30.16,29.94,10,1,10,0.00
2013-4-24,80,62,42,37,28,23,52,29,16,30.03,29.82,19,1,24,0.00
2013-4-25,79,62,47,45,35,25,56,39,18,30.06,29.87,9,0,9,0.00
2013-4-26,84,65,49,51,42,39,73,47,22,30.17,30.04,7,0,7,0.00
2013-4-27,83,66,51,49,42,36,69,44,24,30.21,30.03,11,1,11,0.00
2013-4-28,76,60,48,47,40,34,62,47,31,30.17,30.03,10,1,12,0.00
2013-4-29,68,57,47,50,43,35,76,60,39,30.09,29.95,11,1,11,0.00
2013-4-30,64,50,39,36,32,26,81,55,26,30.27,30.02,13,1,13,0.00
2013-5-1,77,55,36,39,31,19,76,45,18,30.37,30.21,12,0,14,0.00
2013-5-2,84,69,56,41,29,17,36,22,16,30.25,30.03,17,1,17,0.00
2013-5-3,84,66,51,48,40,34,63,40,20,30.15,29.90,9,0,9,0.00
2013-5-4,84,66,51,45,38,28,67,38,20,29.96,29.64,13,1,17,0.00
2013-5-5,84,64,54,52,42,36,65,46,23,29.67,29.50,19,1,19,0.00
2013-5-6,73,59,50,56,50,43,95,73,45,29.86,29.67,11,0,11,0.15
2013-5-7,67,59,53,58,54,51,96,84,67,29.93,29.83,6,0,6,0.00
2013-5-8,73,61,53,57,53,50,93,78,50,30.04,29.90,16,0,16,0.34
2013-5-9,83,66,52,61,54,50,95,70,34,30.11,29.93,7,0,7,0.01
2013-5-10,89,71,57,62,56,51,85,60,33,30.10,29.95,9,0,9,0.00
2013-5-11,88,73,60,66,56,45,83,58,38,30.09,29.89,7,0,7,0.00
2013-5-12,86,71,59,59,49,38,73,47,31,30.02,29.90,12,1,12,0.00
2013-5-13,77,64,53,55,45,39,72,51,34,30.07,29.94,9,0,9,0.00
2013-5-14,76,60,46,50,44,39,90,61,31,30.08,29.93,7,1,8,0.00
2013-5-15,71,58,49,52,45,39,79,64,47,30.01,29.93,11,0,11,0.00
2013-5-16,63,54,50,53,47,42,94,77,57,29.94,29.84,11,0,11,0.04
2013-5-17,63,54,48,46,43,40,88,67,45,30.04,29.92,13,2,13,0.00
2013-5-18,63,54,47,51,46,43,89,76,54,30.24,30.03,12,2,12,0.03
2013-5-19,68,56,47,47,44,38,88,66,33,30.30,30.13,12,2,13,0.00
2013-5-20,78,60,42,52,44,30,95,60,26,30.21,29.84,10,2,10,0.00
2013-5-21,61,50,36,45,37,29,93,63,37,30.05,29.75,22,3,25,0.11
2013-5-22,55,43,33,44,37,32,95,80,50,30.08,29.99,14,2,14,0.22
2013-5-23,58,49,40,43,39,36,94,72,45,30.04,29.95,11,2,12,0.02
2013-5-24,59,50,40,44,40,37,89,70,52,30.02,29.97,13,2,14,0.00
2013-5-25,69,54,38,46,42,36,93,65,35,30.02,29.85,13,2,13,0.00
2013-5-26,65,55,49,53,48,43,95,78,51,30.00,29.91,13,1,13,0.21
2013-5-27,66,55,49,56,51,45,96,87,68,29.98,29.76,13,1,13,0.26
2013-5-28,58,52,49,52,50,48,97,94,78,29.90,29.81,6,0,6,0.01
2013-5-29,68,60,48,50,43,39,76,53,40,30.00,29.83,19,3,20,0.04
2013-5-30,66,54,46,45,42,38,83,65,38,30.16,29.99,13,2,13,0.00
2013-5-31,75,57,38,49,41,28,94,62,20,30.22,30.06,12,2,13,0.00
2013-6-1,79,63,45,50,44,35,87,56,24,30.12,29.87,12,3,12,0.00
2013-6-2,76,62,48,55,50,46,93,67,36,29.91,29.81,14,3,14,0.00
2013-6-3,81,63,46,55,48,35,93,63,21,29.95,29.79,11,2,11,0.00
2013-6-4,88,68,50,56,48,40,85,54,20,29.93,29.78,11,2,12,0.00
2013-6-5,89,71,52,56,48,42,74,47,24,29.96,29.78,11,2,12,0.00
2013-6-6,88,72,54,59,54,49,85,56,31,29.89,29.78,11,2,11,0.00
2013-6-7,86,71,56,61,56,50,92,61,33,29.97,29.85,13,2,13,0.00
2013-6-8,90,72,54,58,52,40,87,55,20,29.94,29.80,12,2,12,0.00
2013-6-9,87,70,54,54,47,38,74,47,25,29.88,29.68,12,3,12,0.00
2013-6-10,79,64,48,51,44,37,77,51,26,29.82,29.69,14,3,14,0.00
2013-6-11,64,55,46,47,44,39,90,68,49,30.06,29.81,13,2,13,0.00
2013-6-12,67,53,40,47,42,37,92,68,38,30.11,30.00,14,3,14,0.00
2013-6-13,67,56,44,46,43,39,85,62,42,30.20,30.10,15,2,15,0.00
2013-6-14,77,59,41,48,42,36,93,60,23,30.20,29.84,11,2,11,0.00
2013-6-15,82,65,47,51,46,42,84,54,27,29.90,29.78,14,2,14,0.00
2013-6-16,80,64,50,52,49,45,87,62,34,29.98,29.89,13,2,13,0.00
2013-6-17,77,68,57,52,50,47,72,53,39,29.97,29.86,14,4,14,0.00
2013-6-18,68,57,51,48,45,40,85,64,38,29.95,29.85,13,2,14,0.00
2013-6-19,65,54,47,50,46,42,85,74,50,30.07,29.92,18,1,18,0.01
2013-6-20,72,58,47,48,45,42,90,65,39,30.07,29.95,11,1,11,0.00
2013-6-21,79,62,46,49,43,33,84,54,23,30.09,29.95,10,1,11,0.00
2013-6-22,84,67,51,49,44,41,73,47,24,30.00,29.75,11,1,11,0.00
2013-6-23,79,66,58,57,50,43,73,57,41,29.76,29.54,7,0,7,0.00
2013-6-24,61,56,50,58,52,48,94,86,73,29.68,29.60,11,0,11,0.11
2013-6-25,72,62,56,58,52,48,86,72,45,29.83,29.64,13,0,13,0.01
2013-6-26,71,61,55,64,57,52,96,87,72,29.97,29.80,6,0,6,0.10
2013-6-27,90,72,57,64,59,55,93,68,40,30.05,29.96,6,0,7,0.00
2013-6-28,97,78,63,65,60,55,85,57,28,30.05,29.86,11,1,11,0.00
2013-6-29,96,79,65,62,58,54,77,51,25,29.98,29.80,9,1,9,0.00
2013-6-30,102,81,66,63,58,53,69,48,25,29.85,29.67,10,1,10,0.00
2013-7-1,101,82,68,68,62,59,77,54,30,29.85,29.75,7,1,7,0.00
2013-7-2,100,85,71,69,64,60,76,51,29,29.89,29.78,7,1,7,0.00
2013-7-3,100,82,71,68,61,45,73,50,33,29.90,29.76,12,1,12,0.00
2013-7-4,90,75,64,55,48,40,61,39,22,29.91,29.75,15,1,15,0.00
2013-7-5,85,69,56,54,50,44,81,52,28,29.88,29.70,10,1,10,0.00
2013-7-6,91,71,55,55,48,44,70,48,28,29.80,29.63,7,1,11,0.00
2013-7-7,92,73,59,58,51,46,66,47,30,29.80,29.65,9,1,9,0.00
2013-7-8,96,76,60,58,54,49,72,49,26,29.88,29.75,6,1,7,0.00
2013-7-9,99,80,65,58,53,48,60,41,20,29.92,29.77,9,1,9,0.00
2013-7-10,97,80,66,60,55,52,65,44,24,29.87,29.67,10,1,10,0.00
2013-7-11,91,75,62,59,53,44,76,49,26,29.82,29.70,11,1,12,0.00
2013-7-12,87,70,57,53,46,41,65,45,21,29.90,29.78,10,1,11,0.00
2013-7-13,90,71,54,54,48,44,71,47,28,29.97,29.80,9,1,9,0.00
2013-7-14,98,77,60,55,49,45,61,41,22,29.93,29.73,10,1,10,0.00
2013-7-15,100,79,63,56,50,42,58,38,20,29.81,29.55,7,1,10,0.00
2013-7-16,93,77,68,54,46,37,53,34,25,29.87,29.62,12,1,12,0.00
2013-7-17,94,75,59,52,43,34,52,33,19,29.99,29.87,7,1,7,0.00
2013-7-18,98,77,61,57,51,44,69,43,21,30.02,29.82,10,1,10,0.00
2013-7-19,97,78,63,57,50,44,57,38,21,29.94,29.76,10,1,10,0.00
2013-7-20,99,79,63,59,51,44,60,40,22,29.87,29.67,9,1,10,0.00
2013-7-21,101,79,63,59,50,40,57,39,22,29.78,29.62,8,1,9,0.00
2013-7-22,101,80,63,56,47,40,51,32,17,29.85,29.69,9,1,9,0.00
2013-7-23,95,79,66,54,47,40,48,33,24,29.88,29.78,6,0,6,0.00
2013-7-24,98,83,73,58,53,49,49,36,23,29.85,29.77,9,1,9,0.00
2013-7-25,106,85,71,58,53,46,52,35,19,29.89,29.72,9,1,9,0.00
2013-7-26,103,84,70,57,48,34,44,29,17,29.93,29.80,9,1,9,0.00
2013-7-27,96,78,66,52,42,33,44,29,18,29.96,29.74,11,1,11,0.00
2013-7-28,90,72,58,49,42,34,55,35,17,29.89,29.71,9,1,12,0.00
2013-7-29,89,71,59,51,44,39,54,39,24,29.89,29.75,10,1,10,0.00
2013-7-30,86,72,59,53,48,42,60,44,28,29.99,29.88,6,0,6,0.00
2013-7-31,84,72,64,57,53,50,66,51,34,29.95,29.83,6,0,6,0.00
2013-8-1,72,62,55,52,51,46,85,68,48,30.04,29.90,7,1,8,0.00
2013-8-2,84,65,50,52,47,44,89,57,26,30.07,29.87,10,1,10,0.00
2013-8-3,92,72,57,54,49,45,71,48,21,29.97,29.77,7,0,7,0.00
2013-8-4,95,76,61,54,49,46,60,41,22,29.89,29.72,9,0,9,0.00
2013-8-5,95,78,64,56,51,48,60,41,23,29.87,29.72,6,0,9,0.00
2013-8-6,97,78,65,58,53,49,61,43,23,29.86,29.70,13,0,13,0.00
2013-8-7,88,73,63,62,56,53,75,56,34,29.91,29.77,18,1,18,0.00
2013-8-8,82,68,56,58,54,51,83,64,40,29.93,29.77,4,0,4,0.00
2013-8-9,83,69,60,63,55,49,74,61,43,29.84,29.74,13,0,13,0.00
2013-8-10,81,67,59,58,52,46,76,60,31,29.97,29.83,18,0,18,0.00
2013-8-11,86,67,52,56,53,49,93,65,34,30.02,29.83,9,1,9,0.00
2013-8-12,90,72,59,58,54,51,79,56,29,29.93,29.80,9,1,9,0.00
2013-8-13,93,74,59,59,54,48,76,52,30,29.97,29.78,9,1,9,0.00
2013-8-14,92,75,62,54,49,45,57,42,25,29.90,29.76,6,0,6,0.00
2013-8-15,92,74,59,59,52,47,66,48,30,29.87,29.76,8,0,8,0.00
2013-8-16,94,77,64,62,57,52,73,53,31,29.89,29.79,11,1,11,0.00
2013-8-17,92,75,63,59,56,54,75,55,30,29.95,29.80,10,1,10,0.00
2013-8-18,96,75,61,61,55,49,80,53,22,29.97,29.80,7,0,7,0.00
2013-8-19,98,77,62,57,53,50,66,45,21,29.96,29.79,10,1,10,0.00
2013-8-20,91,76,63,58,54,47,68,48,29,29.91,29.73,6,0,6,0.00
2013-8-21,90,78,66,55,50,46,53,37,26,29.81,29.67,11,0,11,0.00
2013-8-22,82,70,61,65,54,48,80,56,39,29.87,29.72,15,1,15,0.03
2013-8-23,87,69,54,57,54,49,88,62,34,29.88,29.69,7,0,7,0.00
2013-8-24,87,69,56,55,52,50,82,59,30,29.80,29.66,9,1,9,0.00
2013-8-25,71,64,58,63,57,51,96,81,58,29.86,29.74,6,0,6,0.30
2013-8-26,81,67,56,59,54,48,93,67,37,29.89,29.81,6,0,6,0.00
2013-8-27,87,68,55,56,51,46,81,57,34,29.87,29.66,9,0,9,0.00
2013-8-28,90,70,58,57,52,46,69,53,32,29.80,29.68,9,0,9,0.00
2013-8-29,89,72,62,60,56,53,76,59,32,29.99,29.75,14,0,14,0.00
2013-8-30,89,71,60,61,56,50,82,62,36,30.03,29.80,7,0,7,0.00
2013-8-31,95,78,70,61,56,53,65,49,29,29.88,29.61,9,0,10,0.00
2013-9-1,90,77,68,56,53,46,58,44,31,29.85,29.61,10,0,10,0.00
2013-9-2,83,72,63,57,53,50,65,51,39,29.87,29.69,11,0,11,0.00
2013-9-3,82,67,56,55,50,47,72,56,37,29.90,29.80,11,1,11,0.00
2013-9-4,80,65,55,57,52,48,80,64,42,29.96,29.88,11,0,11,0.00
2013-9-5,74,62,57,57,54,51,89,75,50,30.06,29.87,14,0,14,0.03
2013-9-6,80,64,52,54,50,44,92,66,29,30.16,29.94,9,1,9,0.00
2013-9-7,91,70,54,56,50,46,82,54,22,29.96,29.76,6,0,6,0.00
2013-9-8,91,74,60,56,50,46,66,46,25,29.92,29.76,7,0,7,0.00
2013-9-9,94,75,59,58,52,45,78,50,19,29.90,29.68,7,0,7,0.00
2013-9-10,103,78,62,58,51,42,69,43,15,29.78,29.59,6,0,6,0.00
2013-9-11,101,81,67,54,48,43,46,33,16,29.80,29.67,6,0,6,0.00
2013-9-12,96,77,66,58,54,51,64,47,24,29.86,29.70,7,0,7,0.00
2013-9-13,96,82,65,58,53,48,57,39,25,29.82,29.61,6,0,7,0.00
2013-9-14,96,77,62,57,52,48,67,44,24,29.70,29.50,7,0,7,0.00
2013-9-15,85,71,61,56,51,47,69,51,29,29.80,29.55,10,0,10,0.00
2013-9-16,80,64,53,54,50,45,87,63,34,29.90,29.74,9,0,9,0.00
2013-9-17,62,57,52,55,51,48,93,81,62,30.00,29.71,8,0,8,0.21
2013-9-18,74,58,48,53,48,44,95,74,42,30.07,29.87,6,0,7,0.00
2013-9-19,84,63,48,52,44,38,81,54,25,29.91,29.69,6,0,6,0.00
2013-9-20,75,60,51,54,44,39,91,59,33,29.70,29.55,17,0,17,0.29
2013-9-21,63,54,49,54,50,47,96,86,63,29.81,29.62,6,0,6,0.08
2013-9-22,70,56,49,52,49,46,95,79,50,29.89,29.78,7,0,7,0.02
2013-9-23,70,57,50,58,52,48,97,83,58,29.96,29.88,8,0,8,0.01
2013-9-24,60,53,47,53,49,43,95,85,69,29.95,29.85,6,0,6,0.12
2013-9-25,58,48,44,46,43,39,91,84,53,30.00,29.85,11,0,11,0.07
2013-9-26,63,51,44,45,42,39,91,72,45,30.14,29.99,9,0,12,0.00
2013-9-27,67,52,39,47,41,37,94,68,41,30.20,30.02,5,0,5,0.00
2013-9-28,74,61,51,52,45,39,75,57,37,30.02,29.63,21,1,22,0.00
2013-9-29,65,56,52,54,52,48,96,86,54,29.78,29.63,25,1,25,0.49
2013-9-30,64,55,48,54,46,40,96,74,44,30.01,29.64,14,0,14,0.13
2013-10-1,61,51,44,47,42,38,86,74,50,30.13,29.98,5,0,9,0.00
2013-10-2,59,46,38,43,39,34,95,77,46,30.16,30.05,9,0,9,0.02
2013-10-3,60,49,41,43,39,37,92,71,45,30.31,30.15,6,0,7,0.02
2013-10-4,70,52,38,45,38,32,91,65,35,30.40,30.22,6,0,6,0.00
2013-10-5,77,58,42,47,36,30,73,47,28,30.25,30.08,4,0,4,0.00
2013-10-6,75,59,45,48,39,33,77,49,32,30.09,29.95,5,0,5,0.00
2013-10-7,62,54,47,48,39,32,78,59,41,30.10,29.92,11,0,11,0.00
2013-10-8,57,49,43,44,41,38,93,74,51,30.11,29.90,7,0,7,0.06
2013-10-9,60,48,40,43,40,37,94,75,44,29.94,29.84,7,0,7,0.00
2013-10-10,64,50,40,46,40,37,91,71,41,30.01,29.87,6,0,6,0.00
2013-10-11,61,49,39,46,41,36,91,74,53,30.09,29.99,6,0,6,0.00
2013-10-12,56,47,42,48,43,39,92,87,70,30.06,29.97,10,0,10,0.05
2013-10-13,60,48,40,46,42,39,96,81,56,30.19,30.06,5,0,5,0.01
2013-10-14,67,51,39,46,40,32,91,69,42,30.27,30.11,4,0,4,0.00
2013-10-15,72,55,40,41,33,28,77,47,23,30.21,30.01,15,1,16,0.00
2013-10-16,71,54,43,42,35,28,66,48,29,30.09,29.99,4,0,4,0.00
2013-10-17,72,55,43,46,40,36,76,57,36,30.14,30.00,4,0,4,0.00
2013-10-18,74,58,45,47,42,39,85,58,34,30.11,29.96,4,0,4,0.00
2013-10-19,75,58,46,49,41,36,78,54,36,30.10,29.99,4,0,4,0.00
2013-10-20,74,58,46,48,42,39,79,58,37,30.08,29.93,4,0,4,0.00
2013-10-21,76,60,46,48,42,38,74,54,34,30.03,29.87,3,0,3,0.00
2013-10-22,77,62,50,47,41,37,68,48,30,30.00,29.86,4,0,4,0.00
2013-10-23,76,60,49,48,41,35,71,52,34,29.96,29.84,3,0,3,0.00
2013-10-24,75,58,46,46,39,34,76,50,26,30.01,29.90,3,0,3,0.00
2013-10-25,72,57,46,46,39,34,72,52,35,30.15,30.00,3,0,3,0.00
2013-10-26,71,56,44,45,39,34,75,54,37,30.22,30.01,4,0,4,0.00
2013-10-27,59,49,40,48,40,36,92,74,56,30.02,29.70,15,0,15,0.01
2013-10-28,51,46,42,44,41,38,90,83,69,29.82,29.66,6,0,6,0.00
2013-10-29,60,45,34,41,37,33,94,76,47,30.02,29.81,4,0,4,0.01
2013-10-30,61,48,40,44,40,36,91,73,51,30.17,30.00,6,0,6,0.00
2013-10-31,66,52,43,46,41,36,82,67,45,30.26,30.13,4,0,4,0.00
2013-11-1,67,53,44,49,43,40,90,72,47,30.18,29.95,4,0,4,0.00
2013-11-2,52,47,42,48,41,33,94,79,67,30.16,29.85,10,0,14,0.05
2013-11-3,49,42,38,38,36,33,92,79,60,30.21,30.13,4,0,5,0.00
2013-11-4,48,41,36,41,38,35,96,88,74,30.23,30.14,4,0,4,0.01
2013-11-5,48,44,40,46,42,36,96,93,85,30.28,30.19,2,0,2,0.01
2013-11-6,55,49,46,51,47,44,96,93,83,30.29,30.11,3,0,4,0.01
2013-11-7,58,49,44,52,48,42,100,94,78,30.14,29.99,6,0,6,0.01
2013-11-8,49,42,38,44,40,36,96,92,81,30.20,30.07,4,0,5,0.01
2013-11-9,53,43,37,45,40,35,95,88,71,30.10,29.99,4,0,4,0.00
2013-11-10,57,47,40,48,43,38,96,85,71,30.08,29.97,2,0,2,0.00
2013-11-11,59,48,40,46,40,30,94,77,35,30.10,29.96,3,0,4,0.00
2013-11-12,64,52,47,50,44,30,90,76,27,30.33,30.01,15,0,15,0.00
2013-11-13,60,52,45,54,49,42,97,91,72,30.37,30.18,4,0,4,0.05
2013-11-14,49,45,40,45,42,36,96,91,81,30.19,30.03,7,0,7,0.02
2013-11-15,50,42,38,41,36,33,93,81,59,30.06,29.78,7,0,7,0.00
2013-11-16,48,43,38,43,38,35,93,83,65,29.93,29.73,9,0,10,0.00
2013-11-17,54,44,36,40,36,34,90,76,56,30.06,29.92,4,0,4,0.00
2013-11-18,45,41,37,43,38,34,96,88,81,30.03,29.87,3,0,4,0.00
2013-11-19,53,47,42,50,46,40,97,95,85,29.88,29.77,5,0,5,0.10
2013-11-20,48,44,35,47,43,33,97,96,91,30.14,29.80,5,0,5,0.00
2013-11-21,45,34,26,37,29,23,96,83,63,30.46,30.14,5,0,5,0.04
2013-11-22,51,37,26,32,24,19,89,63,34,30.48,30.26,4,0,4,0.00
2013-11-23,58,44,32,34,25,20,71,49,30,30.27,30.07,3,0,4,0.00
2013-11-24,56,43,34,34,27,22,73,53,35,30.25,30.09,3,0,3,0.00
2013-11-25,54,42,32,36,28,23,77,60,49,30.34,30.24,3,0,3,0.00
2013-11-26,48,40,33,36,32,27,82,71,60,30.26,30.05,3,0,3,0.00
2013-11-27,52,42,36,39,34,32,86,73,58,30.05,29.87,3,0,3,0.00
2013-11-28,56,45,37,41,36,32,87,69,54,30.16,29.95,3,0,3,0.00
2013-11-29,54,44,35,41,36,32,90,75,57,30.30,30.15,4,0,5,0.00
2013-11-30,55,46,39,43,38,34,88,75,61,30.38,30.26,3,0,3,0.00
2013-12-1,56,46,40,45,41,36,91,82,64,30.40,30.15,5,0,5,0.00
2013-12-2,51,44,33,47,41,31,96,89,72,30.17,29.89,15,0,15,0.12
2013-12-3,40,34,30,33,29,26,95,85,64,30.10,30.00,5,0,5,0.01
2013-12-4,35,26,20,26,18,14,86,72,51,30.23,30.09,5,0,5,0.00
2013-12-5,33,25,18,22,18,14,87,75,60,30.27,30.12,4,0,4,0.00
2013-12-6,31,27,24,28,23,17,95,85,69,30.14,29.83,4,0,4,0.00
2013-12-7,28,24,16,27,21,12,95,88,78,30.36,29.86,3,0,3,0.00
2013-12-8,26,17,11,17,13,8,92,85,69,30.59,30.34,3,0,3,0.19
2013-12-9,30,20,12,22,16,9,92,85,63,30.65,30.53,2,0,2,0.06
2013-12-10,32,24,17,26,20,15,100,88,73,30.56,30.41,3,0,3,0.02
2013-12-11,39,28,20,31,25,18,95,88,69,30.43,30.27,2,0,3,0.00
2013-12-12,39,31,23,33,29,21,95,89,78,30.32,30.19,6,0,6,0.01
2013-12-13,46,38,33,37,34,30,92,85,71,30.43,30.27,3,0,3,0.00
2013-12-14,42,34,29,37,32,27,96,92,80,30.51,30.41,2,0,2,0.01
2013-12-15,40,30,23,37,28,21,96,92,77,30.54,30.43,2,0,3,0.00
2013-12-16,45,33,23,37,29,21,94,88,74,30.48,30.27,2,0,2,0.00
2013-12-17,50,37,30,38,32,28,96,83,58,30.28,30.14,5,0,5,0.01
2013-12-18,41,34,24,34,30,21,95,87,75,30.16,29.96,5,0,5,0.00
2013-12-19,41,34,30,33,27,22,90,74,60,30.20,30.00,7,0,7,0.00
2013-12-20,36,32,28,32,27,23,94,82,71,30.22,30.08,6,0,6,0.01
2013-12-21,46,38,32,41,36,30,95,91,83,30.30,30.08,6,0,6,0.00
2013-12-22,52,42,38,44,39,36,95,89,72,30.41,30.27,5,0,5,0.01
2013-12-23,44,41,38,42,39,37,96,94,88,30.48,30.38,4,0,4,0.00
2013-12-24,48,42,38,43,39,35,97,90,81,30.50,30.38,5,0,5,0.00
2013-12-25,43,34,28,41,32,26,97,94,83,30.46,30.33,5,0,5,0.01
2013-12-26,44,32,24,39,30,23,97,91,74,30.43,30.27,3,0,3,0.01
2013-12-27,40,32,24,36,30,22,95,91,84,30.34,30.20,6,0,6,0.00
2013-12-28,41,29,22,36,27,20,96,92,80,30.49,30.33,2,0,3,0.01
2013-12-29,42,30,20,36,27,18,96,87,69,30.44,30.26,3,0,3,0.00
2013-12-30,45,36,31,36,30,23,91,79,64,30.28,30.19,2,0,2,0.00
2013-12-31,49,40,31,38,32,28,92,75,54,30.34,30.23,3,0,3,0.00
2014-1-1,49,39,32,37,32,27,83,75,61,30.34,30.21,4,0,4,0.00
2014-1-2,51,41,32,39,34,29,92,78,62,30.28,30.11,4,0,4,0.00